createdAt,value
2019-02-19T00:22:38.875Z,4.82
2019-02-19T03:29:32.532Z,4.72
2019-02-19T03:30:32.541Z,4.75
2019-02-19T03:31:32.370Z,4.72
2019-02-19T03:32:32.281Z,4.73
2019-02-19T03:33:32.204Z,4.78
2019-02-19T03:34:32.111Z,4.84
2019-02-19T03:35:32.030Z,4.67
2019-02-19T03:36:31.933Z,4.78
2019-02-19T03:37:31.845Z,4.86
2019-02-19T03:38:31.777Z,4.78
2019-02-19T03:39:31.684Z,4.75
2019-02-19T03:40:31.594Z,4.78
2019-02-19T03:41:31.506Z,4.69
2019-02-19T03:42:31.420Z,4.75
2019-02-19T03:43:31.337Z,4.70
2019-02-19T03:44:31.244Z,4.77
2019-02-19T03:45:31.169Z,4.73
2019-02-19T03:46:31.084Z,4.73
2019-02-19T03:47:30.993Z,4.66
2019-02-19T03:48:30.909Z,4.66
2019-02-19T03:49:30.822Z,4.70
2019-02-19T03:50:30.735Z,4.67
2019-02-19T03:51:30.647Z,4.70
2019-02-19T03:52:30.569Z,4.73
2019-02-19T03:53:30.482Z,4.75
2019-02-19T03:54:30.399Z,4.69
2019-02-19T03:55:30.308Z,4.75
2019-02-19T03:56:30.223Z,4.80
2019-02-19T03:57:30.135Z,4.80
2019-02-19T03:58:30.047Z,4.72
2019-02-19T03:59:29.972Z,4.70
2019-02-19T04:00:29.885Z,4.65
2019-02-19T04:01:29.797Z,4.65
2019-02-19T04:02:29.712Z,4.52
2019-02-19T04:03:29.624Z,4.55
2019-02-19T04:04:29.534Z,4.55
2019-02-19T04:05:29.463Z,4.54
2019-02-19T04:06:29.360Z,4.58
2019-02-19T04:07:29.283Z,4.54
2019-02-19T04:08:29.208Z,4.48
2019-02-19T04:09:29.113Z,4.45
2019-02-19T04:10:29.024Z,4.41
2019-02-19T04:11:28.936Z,4.45
2019-02-19T04:12:28.847Z,4.48
2019-02-19T04:13:28.765Z,4.48
2019-02-19T04:14:28.684Z,4.48
2019-02-19T04:15:28.597Z,4.54
2019-02-19T04:16:28.509Z,4.58
2019-02-19T04:17:28.423Z,4.50
2019-02-19T04:18:28.337Z,4.60
2019-02-19T04:19:28.248Z,4.60
2019-02-19T04:20:28.163Z,4.58
2019-02-19T04:21:28.087Z,4.52
2019-02-19T04:22:28.001Z,4.50
2019-02-19T04:23:27.912Z,4.50
2019-02-19T04:24:27.823Z,4.55
2019-02-19T04:25:27.739Z,4.54
2019-02-19T04:26:27.649Z,4.50
2019-02-19T04:27:27.576Z,4.40
2019-02-19T04:28:27.487Z,4.47
2019-02-19T04:29:27.400Z,4.50
2019-02-19T04:30:27.314Z,4.51
2019-02-19T04:31:27.226Z,4.59
2019-02-19T04:32:27.137Z,4.58
2019-02-19T04:33:27.050Z,4.54
2019-02-19T04:34:26.961Z,4.54
2019-02-19T04:35:26.887Z,4.55
2019-02-19T04:36:26.803Z,4.58
2019-02-19T04:37:26.713Z,4.52
2019-02-19T04:38:26.628Z,4.63
2019-02-19T04:39:26.539Z,4.66
2019-02-19T04:40:26.455Z,4.70
2019-02-19T04:41:26.363Z,4.72
2019-02-19T04:42:26.276Z,4.69
2019-02-19T04:43:26.200Z,4.73
2019-02-19T04:44:26.127Z,4.69
2019-02-19T04:45:26.028Z,4.73
2019-02-19T04:46:31.484Z,4.70
2019-02-19T04:47:25.862Z,4.72
2019-02-19T04:48:25.764Z,4.72
2019-02-19T04:49:25.676Z,4.54
2019-02-19T04:50:25.600Z,4.67
2019-02-19T04:51:25.532Z,4.73
2019-02-19T04:52:25.426Z,4.77
2019-02-19T04:53:25.338Z,4.73
2019-02-19T04:54:25.345Z,4.65
2019-02-19T04:55:25.165Z,4.69
2019-02-19T04:56:25.086Z,4.66
2019-02-19T04:57:25.004Z,4.70
2019-02-19T04:58:24.917Z,4.65
2019-02-19T04:59:24.829Z,4.58
2019-02-19T05:00:24.745Z,4.62
2019-02-19T05:01:24.653Z,4.54
2019-02-19T05:02:24.564Z,4.54
2019-02-19T05:03:24.498Z,4.54
2019-02-19T05:04:24.402Z,4.45
2019-02-19T05:05:24.319Z,4.45
2019-02-19T05:06:24.232Z,4.50
2019-02-19T05:07:24.142Z,4.59
2019-02-19T05:08:24.062Z,4.50
2019-02-19T05:09:23.982Z,4.58
2019-02-19T05:10:23.880Z,4.51
2019-02-19T05:11:23.793Z,4.54
2019-02-19T05:12:23.728Z,4.62
2019-02-19T05:13:23.628Z,4.55
2019-02-19T05:14:23.542Z,4.55
2019-02-19T05:15:23.459Z,4.59
2019-02-19T05:16:23.369Z,4.55
2019-02-19T05:17:23.281Z,4.48
2019-02-19T05:18:23.193Z,4.48
2019-02-19T05:19:23.120Z,4.63
2019-02-19T05:20:23.036Z,4.55
2019-02-19T05:21:22.957Z,4.62
2019-02-19T05:22:22.856Z,4.59
2019-02-19T05:23:22.769Z,4.59
2019-02-19T05:24:22.680Z,4.58
2019-02-19T05:25:22.603Z,4.63
2019-02-19T05:26:22.516Z,4.59
2019-02-19T05:27:22.430Z,4.59
2019-02-19T05:28:22.357Z,4.55
2019-02-19T05:29:22.259Z,4.62
2019-02-19T05:30:22.172Z,4.62
2019-02-19T05:31:22.087Z,4.60
2019-02-19T05:32:21.993Z,4.60
2019-02-19T05:33:21.908Z,4.63
2019-02-19T05:34:21.832Z,4.63
2019-02-19T05:35:21.748Z,4.54
2019-02-19T05:36:21.657Z,4.63
2019-02-19T05:37:21.586Z,4.65
2019-02-19T05:38:21.484Z,4.63
2019-02-19T05:39:21.405Z,4.60
2019-02-19T05:40:21.308Z,4.65
2019-02-19T05:41:21.222Z,4.63
2019-02-19T05:42:21.146Z,4.59
2019-02-19T05:43:21.058Z,4.59
2019-02-19T05:44:20.969Z,4.59
2019-02-19T05:45:20.882Z,4.70
2019-02-19T05:46:20.806Z,4.75
2019-02-19T05:47:20.707Z,4.80
2019-02-19T05:48:20.636Z,4.78
2019-02-19T05:49:20.546Z,4.77
2019-02-19T05:50:20.459Z,4.82
2019-02-19T05:51:20.372Z,4.92
2019-02-19T05:52:20.307Z,4.88
2019-02-19T05:53:20.196Z,4.89
2019-02-19T05:54:20.110Z,4.96
2019-02-19T05:55:20.024Z,4.97
2019-02-19T05:56:19.946Z,4.96
2019-02-19T05:57:19.899Z,5.02
2019-02-19T05:58:19.770Z,5.03
2019-02-19T05:59:19.691Z,5.04
2019-02-19T06:00:19.597Z,5.00
2019-02-19T06:01:19.511Z,5.03
2019-02-19T06:02:19.422Z,5.09
2019-02-19T06:03:19.347Z,5.04
2019-02-19T06:04:19.259Z,5.03
2019-02-19T06:05:19.170Z,5.02
2019-02-19T06:06:19.083Z,5.09
2019-02-19T06:07:18.996Z,5.04
2019-02-19T06:08:18.912Z,5.06
2019-02-19T06:09:18.823Z,5.07
2019-02-19T06:10:18.734Z,5.03
2019-02-19T06:11:18.659Z,5.02
2019-02-19T06:12:18.574Z,4.91
2019-02-19T06:13:18.486Z,5.00
2019-02-19T06:14:18.398Z,5.04
2019-02-19T06:15:18.318Z,5.06
2019-02-19T06:16:18.222Z,5.00
2019-02-19T06:17:18.135Z,4.99
2019-02-19T06:18:18.063Z,4.96
2019-02-19T06:19:17.975Z,4.96
2019-02-19T06:20:17.888Z,4.91
2019-02-19T06:21:17.799Z,4.94
2019-02-19T06:22:17.715Z,4.89
2019-02-19T06:23:17.626Z,4.92
2019-02-19T06:24:17.550Z,5.04
2019-02-19T06:25:17.464Z,4.99
2019-02-19T06:26:17.376Z,4.97
2019-02-19T06:27:17.289Z,5.06
2019-02-19T06:28:17.198Z,5.02
2019-02-19T06:29:17.114Z,5.00
2019-02-19T06:30:17.023Z,5.02
2019-02-19T06:31:16.961Z,5.03
2019-02-19T06:32:16.863Z,5.04
2019-02-19T06:33:16.777Z,4.96
2019-02-19T06:34:16.693Z,5.03
2019-02-19T06:35:16.619Z,5.03
2019-02-19T06:36:16.512Z,5.13
2019-02-19T06:37:16.425Z,5.06
2019-02-19T06:38:16.349Z,5.02
2019-02-19T06:39:16.263Z,5.02
2019-02-19T06:40:16.176Z,5.07
2019-02-19T06:41:16.089Z,5.17
2019-02-19T06:42:16.002Z,5.10
2019-02-19T06:43:15.916Z,5.04
2019-02-19T06:44:15.842Z,5.10
2019-02-19T06:45:15.763Z,5.13
2019-02-19T06:46:15.663Z,5.15
2019-02-19T06:47:15.575Z,5.17
2019-02-19T06:48:15.503Z,5.07
2019-02-19T06:49:15.406Z,5.04
2019-02-19T06:50:15.328Z,5.15
2019-02-19T06:51:15.241Z,5.13
2019-02-19T06:52:15.164Z,5.07
2019-02-19T06:53:15.065Z,5.12
2019-02-19T06:54:14.978Z,5.15
2019-02-19T06:55:14.896Z,5.17
2019-02-19T06:56:14.802Z,5.18
2019-02-19T06:57:14.726Z,5.17
2019-02-19T06:58:14.639Z,5.18
2019-02-19T06:59:14.552Z,5.18
2019-02-19T07:00:14.466Z,5.24
2019-02-19T07:01:14.383Z,5.24
2019-02-19T07:02:14.304Z,5.28
2019-02-19T07:03:14.218Z,5.38
2019-02-19T07:04:14.127Z,5.38
2019-02-19T07:05:14.041Z,5.46
2019-02-19T07:06:13.952Z,5.42
2019-02-19T07:07:13.866Z,5.40
2019-02-19T07:08:13.793Z,5.49
2019-02-19T07:09:13.705Z,5.54
2019-02-19T07:10:13.618Z,5.48
2019-02-19T07:11:13.530Z,5.56
2019-02-19T07:12:13.444Z,5.49
2019-02-19T07:13:13.357Z,5.56
2019-02-19T07:14:13.280Z,5.58
2019-02-19T07:15:13.194Z,5.61
2019-02-19T07:16:13.103Z,5.78
2019-02-19T07:17:15.744Z,5.76
2019-02-19T07:18:12.929Z,5.76
2019-02-19T07:19:12.855Z,5.81
2019-02-19T07:20:12.869Z,5.94
2019-02-19T07:21:12.694Z,5.90
2019-02-19T07:22:12.597Z,5.83
2019-02-19T07:23:12.506Z,5.99
2019-02-19T07:24:12.431Z,6.09
2019-02-19T07:25:12.342Z,6.15
2019-02-19T07:26:12.254Z,6.12
2019-02-19T07:27:12.167Z,6.14
2019-02-19T07:28:12.080Z,6.17
2019-02-19T07:29:12.008Z,6.14
2019-02-19T07:30:11.917Z,6.28
2019-02-19T07:31:11.843Z,6.25
2019-02-19T07:32:11.746Z,6.30
2019-02-19T07:33:11.658Z,6.27
2019-02-19T07:34:11.582Z,6.30
2019-02-19T07:35:11.495Z,6.37
2019-02-19T07:36:11.412Z,6.34
2019-02-19T07:37:11.318Z,6.49
2019-02-19T07:38:11.243Z,6.51
2019-02-19T07:39:11.155Z,6.58
2019-02-19T07:40:11.074Z,6.58
2019-02-19T07:41:10.983Z,6.58
2019-02-19T07:42:10.912Z,6.62
2019-02-19T07:43:10.823Z,6.67
2019-02-19T07:44:10.735Z,6.71
2019-02-19T07:45:10.648Z,6.74
2019-02-19T07:46:10.571Z,6.76
2019-02-19T07:47:10.484Z,6.81
2019-02-19T07:48:10.394Z,6.77
2019-02-19T07:49:10.307Z,6.85
2019-02-19T07:50:10.231Z,6.99
2019-02-19T07:51:10.144Z,6.92
2019-02-19T07:52:10.067Z,6.94
2019-02-19T07:53:09.973Z,6.94
2019-02-19T07:54:09.886Z,7.02
2019-02-19T07:55:09.809Z,6.98
2019-02-19T07:56:09.721Z,7.10
2019-02-19T07:57:09.632Z,7.16
2019-02-19T07:58:09.557Z,7.21
2019-02-19T07:59:09.471Z,7.24
2019-02-19T08:00:09.384Z,7.32
2019-02-19T08:01:09.296Z,7.37
2019-02-19T08:02:09.223Z,7.37
2019-02-19T08:03:09.133Z,7.49
2019-02-19T08:04:09.051Z,7.53
2019-02-19T08:05:08.962Z,7.55
2019-02-19T08:06:08.887Z,7.64
2019-02-19T08:07:08.798Z,7.72
2019-02-19T08:08:08.709Z,7.74
2019-02-19T08:09:08.634Z,7.82
2019-02-19T08:10:08.548Z,7.92
2019-02-19T08:11:08.458Z,7.97
2019-02-19T08:12:08.386Z,7.97
2019-02-19T08:13:08.300Z,8.08
2019-02-19T08:14:08.214Z,8.16
2019-02-19T08:15:08.126Z,8.28
2019-02-19T08:16:08.050Z,8.22
2019-02-19T08:17:07.962Z,8.34
2019-02-19T08:18:07.875Z,8.41
2019-02-19T08:19:07.800Z,8.52
2019-02-19T08:20:15.437Z,8.58
2019-02-19T08:21:07.623Z,8.79
2019-02-19T08:22:07.549Z,8.86
2019-02-19T08:23:07.461Z,8.92
2019-02-19T08:24:07.379Z,8.91
2019-02-19T08:25:07.300Z,8.91
2019-02-19T08:26:07.217Z,9.05
2019-02-19T08:27:07.126Z,9.01
2019-02-19T08:28:07.049Z,9.14
2019-02-19T08:29:13.426Z,9.20
2019-02-19T08:30:06.875Z,9.33
2019-02-19T08:31:06.802Z,9.39
2019-02-19T08:32:06.711Z,9.53
2019-02-19T08:33:06.625Z,9.65
2019-02-19T08:34:06.550Z,9.90
2019-02-19T08:35:06.462Z,9.91
2019-02-19T08:36:06.379Z,9.89
2019-02-19T08:37:06.302Z,9.94
2019-02-19T08:38:06.214Z,10.02
2019-02-19T08:39:06.134Z,9.93
2019-02-19T08:40:06.052Z,9.87
2019-02-19T08:41:05.963Z,9.94
2019-02-19T08:42:05.900Z,9.91
2019-02-19T08:43:05.805Z,9.89
2019-02-19T08:44:05.715Z,9.93
2019-02-19T08:45:05.641Z,9.74
2019-02-19T08:46:05.554Z,9.75
2019-02-19T08:47:05.467Z,9.66
2019-02-19T08:48:05.400Z,9.71
2019-02-19T08:49:05.304Z,9.72
2019-02-19T08:50:05.232Z,9.61
2019-02-19T08:51:05.138Z,9.58
2019-02-19T08:52:05.065Z,9.64
2019-02-19T08:53:04.982Z,9.69
2019-02-19T08:54:04.892Z,9.71
2019-02-19T08:55:04.817Z,9.83
2019-02-19T08:56:04.731Z,9.91
2019-02-19T08:57:04.640Z,10.07
2019-02-19T08:58:04.565Z,10.11
2019-02-19T08:59:04.478Z,10.12
2019-02-19T09:00:04.405Z,10.15
2019-02-19T09:01:04.330Z,10.26
2019-02-19T09:02:04.230Z,10.26
2019-02-19T09:03:04.157Z,10.42
2019-02-19T09:04:04.068Z,10.40
2019-02-19T09:05:03.993Z,10.44
2019-02-19T09:06:03.905Z,10.47
2019-02-19T09:07:03.819Z,10.38
2019-02-19T09:08:03.755Z,10.41
2019-02-19T09:09:03.654Z,10.42
2019-02-19T09:10:03.582Z,10.48
2019-02-19T09:11:03.493Z,10.33
2019-02-19T09:12:03.432Z,10.40
2019-02-19T09:13:03.342Z,10.33
2019-02-19T09:14:03.244Z,10.45
2019-02-19T09:15:03.168Z,10.34
2019-02-19T09:16:03.090Z,10.32
2019-02-19T09:17:03.004Z,10.27
2019-02-19T09:18:02.919Z,10.42
2019-02-19T09:19:02.841Z,10.36
2019-02-19T09:20:02.754Z,10.34
2019-02-19T09:21:02.688Z,10.36
2019-02-19T09:22:02.591Z,10.30
2019-02-19T09:23:02.513Z,10.32
2019-02-19T09:24:09.229Z,10.26
2019-02-19T09:25:02.357Z,10.27
2019-02-19T09:26:02.283Z,10.34
2019-02-19T09:27:02.186Z,10.23
2019-02-19T09:28:02.093Z,10.26
2019-02-19T09:29:02.018Z,10.25
2019-02-19T09:30:01.935Z,10.23
2019-02-19T09:31:01.856Z,10.23
2019-02-19T09:32:01.771Z,10.36
2019-02-19T09:33:01.683Z,10.42
2019-02-19T09:34:01.623Z,10.38
2019-02-19T09:35:01.521Z,10.38
2019-02-19T09:36:01.445Z,10.36
2019-02-19T09:37:01.358Z,10.45
2019-02-19T09:38:01.284Z,10.40
2019-02-19T09:39:01.197Z,10.51
2019-02-19T09:40:01.113Z,10.44
2019-02-19T09:41:01.033Z,10.40
2019-02-19T09:42:00.947Z,10.36
2019-02-19T09:43:00.872Z,10.40
2019-02-19T09:44:00.784Z,10.38
2019-02-19T09:45:00.698Z,10.26
2019-02-19T09:46:00.626Z,10.33
2019-02-19T09:47:00.536Z,10.29
2019-02-19T09:48:01.497Z,10.30
2019-02-19T09:49:00.376Z,10.32
2019-02-19T09:50:00.369Z,10.44
2019-02-19T09:51:00.210Z,10.55
2019-02-19T09:52:00.122Z,10.52
2019-02-19T09:53:00.446Z,10.63
2019-02-19T09:53:59.960Z,10.66
2019-02-19T09:54:59.895Z,10.56
2019-02-19T09:55:59.799Z,10.59
2019-02-19T09:56:59.722Z,10.52
2019-02-19T09:57:59.636Z,10.59
2019-02-19T09:58:59.555Z,10.40
2019-02-19T09:59:59.723Z,10.56
2019-02-19T10:00:59.384Z,10.53
2019-02-19T10:01:59.310Z,10.60
2019-02-19T10:02:59.222Z,10.60
2019-02-19T10:03:59.148Z,10.44
2019-02-19T10:04:59.074Z,10.44
2019-02-19T10:05:58.975Z,10.47
2019-02-19T10:06:58.900Z,10.51
2019-02-19T10:07:58.812Z,10.52
2019-02-19T10:08:58.736Z,10.56
2019-02-19T10:09:58.649Z,10.55
2019-02-19T10:10:58.576Z,10.44
2019-02-19T10:11:58.492Z,10.44
2019-02-19T10:12:58.399Z,10.44
2019-02-19T10:13:58.322Z,10.36
2019-02-19T10:14:58.236Z,10.32
2019-02-19T10:15:58.365Z,10.45
2019-02-19T10:16:58.890Z,10.44
2019-02-19T10:17:58.750Z,10.48
2019-02-19T12:00:23.199Z,10.63
2019-02-19T12:01:20.512Z,10.61
2019-02-19T12:02:20.412Z,10.61
2019-02-19T12:05:26.689Z,10.73
2019-02-19T12:06:26.598Z,10.74
2019-02-19T12:07:26.524Z,10.78
2019-02-19T12:08:26.446Z,10.78
2019-02-19T12:09:26.359Z,10.96
2019-02-19T12:10:26.274Z,10.94
2019-02-19T12:11:26.184Z,11.00
2019-02-19T12:12:26.111Z,11.02
2019-02-19T12:13:26.026Z,11.17
2019-02-19T12:14:25.950Z,11.21
2019-02-19T12:15:34.544Z,11.28
2019-02-19T12:16:25.788Z,11.28
2019-02-19T12:17:25.698Z,11.42
2019-02-19T12:18:25.611Z,11.35
2019-02-19T12:19:25.535Z,11.43
2019-02-19T12:20:25.448Z,11.46
2019-02-19T12:21:25.374Z,11.49
2019-02-19T12:22:25.300Z,11.44
2019-02-19T12:23:25.210Z,11.42
2019-02-19T12:24:25.130Z,11.27
2019-02-19T12:25:25.050Z,11.21
2019-02-19T12:26:24.962Z,11.28
2019-02-19T12:27:24.876Z,11.17
2019-02-19T12:28:24.799Z,11.43
2019-02-19T12:29:24.712Z,11.47
2019-02-19T12:30:24.649Z,11.46
2019-02-19T12:31:24.550Z,11.51
2019-02-19T12:32:24.476Z,11.61
2019-02-19T12:33:24.401Z,11.58
2019-02-19T12:34:24.314Z,11.61
2019-02-19T12:35:24.227Z,11.57
2019-02-19T12:36:24.154Z,11.58
2019-02-19T12:37:24.063Z,11.47
2019-02-19T12:38:23.991Z,11.54
2019-02-19T12:39:23.904Z,11.40
2019-02-19T12:40:23.829Z,11.21
2019-02-19T12:41:23.743Z,11.14
2019-02-19T12:42:23.652Z,11.14
2019-02-19T12:43:23.576Z,11.15
2019-02-19T12:44:23.491Z,11.15
2019-02-19T12:45:23.414Z,11.15
2019-02-19T12:46:23.329Z,11.17
2019-02-19T12:47:23.253Z,11.19
2019-02-19T12:48:23.190Z,11.19
2019-02-19T12:49:23.091Z,11.25
2019-02-19T12:50:23.001Z,11.37
2019-02-19T12:51:26.469Z,11.47
2019-02-19T12:52:22.840Z,11.49
2019-02-19T12:53:22.768Z,11.44
2019-02-19T12:54:22.676Z,11.42
2019-02-19T12:55:22.604Z,11.43
2019-02-19T12:56:22.532Z,11.46
2019-02-19T12:57:22.442Z,11.43
2019-02-19T12:58:22.354Z,11.44
2019-02-19T12:59:22.266Z,11.40
2019-02-19T13:00:22.189Z,11.24
2019-02-19T13:01:22.103Z,11.33
2019-02-19T13:02:22.029Z,11.28
2019-02-19T13:03:21.939Z,11.25
2019-02-19T13:04:21.866Z,11.44
2019-02-19T13:05:21.783Z,11.27
2019-02-19T13:06:21.710Z,11.25
2019-02-19T13:07:21.617Z,11.21
2019-02-19T13:08:21.540Z,11.18
2019-02-19T13:09:21.454Z,11.25
2019-02-19T13:10:21.379Z,11.21
2019-02-19T13:11:21.293Z,11.14
2019-02-19T13:12:21.205Z,11.06
2019-02-19T13:13:21.130Z,11.00
2019-02-19T13:14:21.043Z,11.07
2019-02-19T13:15:20.968Z,11.11
2019-02-19T13:16:20.879Z,11.19
2019-02-19T13:17:20.804Z,11.18
2019-02-19T13:18:20.716Z,11.15
2019-02-19T13:19:20.642Z,11.24
2019-02-19T13:20:20.557Z,11.18
2019-02-19T13:21:20.484Z,11.18
2019-02-19T13:22:20.406Z,11.49
2019-02-19T13:23:20.307Z,11.58
2019-02-19T13:24:20.233Z,11.54
2019-02-19T13:25:20.143Z,11.43
2019-02-19T13:26:20.069Z,11.43
2019-02-19T13:27:19.983Z,11.29
2019-02-19T13:28:19.905Z,11.18
2019-02-19T13:29:19.817Z,11.24
2019-02-19T13:30:19.755Z,11.14
2019-02-19T13:31:19.656Z,11.24
2019-02-19T13:32:19.570Z,11.14
2019-02-19T13:33:19.508Z,11.18
2019-02-19T13:34:19.407Z,11.15
2019-02-19T13:35:19.333Z,11.14
2019-02-19T13:36:19.245Z,11.15
2019-02-19T13:37:19.167Z,11.11
2019-02-19T13:38:19.082Z,11.18
2019-02-19T13:39:19.010Z,11.17
2019-02-19T13:40:18.918Z,11.00
2019-02-19T13:41:18.843Z,11.02
2019-02-19T13:42:18.756Z,10.94
2019-02-19T13:43:18.670Z,11.06
2019-02-19T13:44:18.596Z,11.09
2019-02-19T13:45:18.513Z,11.14
2019-02-19T13:46:18.434Z,10.99
2019-02-19T13:47:18.359Z,11.02
2019-02-19T13:48:18.269Z,11.02
2019-02-19T13:49:18.191Z,10.99
2019-02-19T13:50:18.095Z,10.99
2019-02-19T13:51:18.019Z,11.06
2019-02-19T13:52:22.768Z,10.96
2019-02-19T13:53:17.859Z,11.00
2019-02-19T13:54:17.774Z,11.03
2019-02-19T13:55:17.700Z,11.03
2019-02-19T13:56:17.614Z,10.99
2019-02-19T13:57:17.536Z,10.92
2019-02-19T13:58:17.449Z,10.96
2019-02-19T13:59:17.360Z,10.96
2019-02-19T14:00:17.289Z,10.91
2019-02-19T14:01:17.195Z,10.91
2019-02-19T14:02:17.120Z,10.97
2019-02-19T14:03:17.034Z,10.94
2019-02-19T14:04:16.961Z,11.00
2019-02-19T14:05:16.873Z,11.04
2019-02-19T14:06:16.786Z,11.00
2019-02-19T14:07:16.712Z,11.15
2019-02-19T14:08:16.631Z,11.18
2019-02-19T14:09:16.546Z,10.97
2019-02-19T14:10:16.462Z,11.10
2019-02-19T14:11:16.385Z,11.11
2019-02-19T14:12:16.297Z,10.99
2019-02-19T14:13:16.212Z,11.10
2019-02-19T14:14:16.136Z,11.18
2019-02-19T14:15:16.060Z,11.10
2019-02-19T14:16:15.974Z,11.11
2019-02-19T14:17:15.889Z,11.14
2019-02-19T14:18:15.812Z,11.10
2019-02-19T14:19:21.110Z,11.14
2019-02-19T14:20:15.636Z,11.15
2019-02-19T14:21:15.560Z,11.19
2019-02-19T14:22:15.472Z,11.21
2019-02-19T14:23:15.398Z,11.29
2019-02-19T14:24:15.315Z,11.42
2019-02-19T14:25:15.238Z,11.42
2019-02-19T14:26:15.150Z,11.44
2019-02-19T14:27:15.089Z,11.49
2019-02-19T14:28:14.989Z,11.44
2019-02-19T14:29:14.901Z,11.43
2019-02-19T14:30:14.825Z,11.44
2019-02-19T14:31:14.755Z,11.33
2019-02-19T14:32:14.661Z,11.39
2019-02-19T14:33:14.573Z,11.40
2019-02-19T14:34:14.499Z,11.40
2019-02-19T14:35:14.412Z,11.39
2019-02-19T14:36:14.327Z,11.57
2019-02-19T14:37:14.258Z,11.54
2019-02-19T14:38:14.164Z,11.54
2019-02-19T14:39:14.090Z,11.60
2019-02-19T14:40:14.003Z,11.46
2019-02-19T14:41:13.924Z,11.44
2019-02-19T14:42:13.839Z,11.46
2019-02-19T14:43:13.768Z,11.51
2019-02-19T14:44:13.676Z,11.32
2019-02-19T14:45:13.588Z,11.21
2019-02-19T14:46:13.513Z,11.14
2019-02-19T14:47:13.425Z,11.17
2019-02-19T14:48:13.353Z,11.14
2019-02-19T14:49:13.265Z,11.00
2019-02-19T14:50:13.192Z,10.99
2019-02-19T14:51:13.105Z,11.09
2019-02-19T14:52:13.025Z,11.02
2019-02-19T14:53:12.938Z,10.96
2019-02-19T14:54:12.883Z,10.88
2019-02-19T14:55:12.777Z,10.97
2019-02-19T14:56:12.691Z,10.96
2019-02-19T14:57:12.617Z,10.92
2019-02-19T14:58:12.530Z,10.94
2019-02-19T14:59:12.456Z,10.99
2019-02-19T15:00:12.367Z,10.99
2019-02-19T15:01:12.292Z,10.99
2019-02-19T15:02:12.204Z,10.99
2019-02-19T15:03:12.120Z,10.92
2019-02-19T15:04:12.040Z,10.99
2019-02-19T15:05:11.958Z,10.96
2019-02-19T15:06:11.865Z,10.92
2019-02-19T15:07:13.426Z,10.89
2019-02-19T15:08:11.710Z,10.86
2019-02-19T15:09:11.643Z,10.86
2019-02-19T15:10:11.543Z,10.92
2019-02-19T15:11:11.471Z,10.81
2019-02-19T15:12:11.389Z,10.85
2019-02-19T15:13:11.291Z,10.84
2019-02-19T15:14:11.217Z,10.74
2019-02-19T15:15:11.129Z,10.78
2019-02-19T15:16:11.056Z,10.71
2019-02-19T15:17:10.969Z,10.81
2019-02-19T15:18:10.885Z,10.67
2019-02-19T15:19:10.806Z,10.81
2019-02-19T15:20:10.717Z,10.78
2019-02-19T15:21:10.642Z,10.73
2019-02-19T15:22:10.555Z,10.68
2019-02-19T15:23:10.479Z,10.63
2019-02-19T15:24:10.395Z,10.74
2019-02-19T15:25:10.308Z,10.67
2019-02-19T15:26:10.231Z,10.61
2019-02-19T15:27:10.144Z,10.61
2019-02-19T15:28:10.068Z,10.64
2019-02-19T15:29:09.980Z,10.67
2019-02-19T15:30:09.894Z,10.67
2019-02-19T15:31:09.819Z,10.55
2019-02-19T15:32:09.730Z,10.53
2019-02-19T15:33:09.667Z,10.60
2019-02-19T15:34:09.568Z,10.52
2019-02-19T15:35:09.493Z,10.59
2019-02-19T15:36:09.407Z,10.56
2019-02-19T15:37:10.658Z,10.60
2019-02-19T15:38:09.250Z,10.56
2019-02-19T15:39:09.159Z,10.55
2019-02-19T15:40:09.080Z,10.52
2019-02-19T15:41:08.995Z,10.55
2019-02-19T15:42:08.919Z,10.52
2019-02-19T15:43:08.831Z,10.53
2019-02-19T15:44:08.750Z,10.53
2019-02-19T15:45:08.671Z,10.56
2019-02-19T15:46:08.583Z,10.48
2019-02-19T15:47:08.498Z,10.47
2019-02-19T15:48:08.446Z,10.44
2019-02-19T15:49:08.334Z,10.53
2019-02-19T15:50:08.260Z,10.51
2019-02-19T15:51:08.172Z,10.44
2019-02-19T15:52:08.085Z,10.42
2019-02-19T15:53:08.026Z,10.40
2019-02-19T15:54:07.919Z,10.42
2019-02-19T15:55:07.845Z,10.44
2019-02-19T15:56:07.759Z,10.45
2019-02-19T15:57:07.672Z,10.40
2019-02-19T15:58:07.597Z,10.36
2019-02-19T15:59:07.511Z,10.40
2019-02-19T16:00:07.432Z,10.33
2019-02-19T16:01:07.350Z,10.36
2019-02-19T16:02:07.258Z,10.36
2019-02-19T16:03:07.183Z,10.41
2019-02-19T16:04:07.103Z,10.34
2019-02-19T16:05:07.029Z,10.34
2019-02-19T16:06:06.934Z,10.33
2019-02-19T16:07:06.854Z,10.33
2019-02-19T16:08:06.775Z,10.26
2019-02-19T16:09:06.685Z,10.29
2019-02-19T16:10:06.600Z,10.25
2019-02-19T16:11:06.525Z,10.27
2019-02-19T16:12:06.447Z,10.26
2019-02-19T16:13:06.359Z,10.26
2019-02-19T16:14:06.272Z,10.25
2019-02-19T16:15:06.188Z,10.27
2019-02-19T16:16:06.135Z,10.30
2019-02-19T16:17:06.025Z,10.27
2019-02-19T16:18:06.054Z,10.18
2019-02-19T16:19:05.866Z,10.27
2019-02-19T16:20:05.775Z,10.30
2019-02-19T16:21:05.706Z,10.32
2019-02-19T16:22:05.625Z,10.26
2019-02-19T16:23:05.529Z,10.29
2019-02-19T16:24:05.456Z,10.26
2019-02-19T16:25:05.361Z,10.25
2019-02-19T16:26:05.285Z,10.18
2019-02-19T16:27:05.200Z,10.23
2019-02-19T16:28:05.114Z,10.26
2019-02-19T16:29:05.037Z,10.23
2019-02-19T16:30:04.953Z,10.14
2019-02-19T16:31:04.868Z,10.17
2019-02-19T16:32:04.785Z,10.22
2019-02-19T16:33:04.699Z,10.15
2019-02-19T16:34:04.631Z,10.17
2019-02-19T16:35:04.537Z,10.23
2019-02-19T16:36:04.450Z,10.20
2019-02-19T16:37:04.374Z,10.15
2019-02-19T16:38:04.286Z,10.12
2019-02-19T16:39:04.211Z,10.12
2019-02-19T16:40:04.127Z,10.11
2019-02-19T16:41:04.051Z,10.18
2019-02-19T16:42:03.964Z,10.14
2019-02-19T16:43:03.877Z,10.15
2019-02-19T16:44:03.788Z,10.14
2019-02-19T16:45:03.718Z,10.20
2019-02-19T16:46:03.625Z,10.12
2019-02-19T16:47:03.545Z,10.07
2019-02-19T16:48:03.470Z,10.14
2019-02-19T16:49:03.378Z,10.08
2019-02-19T16:50:07.681Z,10.17
2019-02-19T16:51:03.217Z,10.09
2019-02-19T16:52:03.129Z,10.18
2019-02-19T16:53:03.053Z,10.14
2019-02-19T16:54:02.993Z,10.14
2019-02-19T16:55:02.879Z,10.11
2019-02-19T16:56:02.801Z,10.15
2019-02-19T16:57:02.713Z,10.01
2019-02-19T16:58:02.641Z,10.07
2019-02-19T16:59:07.491Z,9.99
2019-02-19T17:00:02.487Z,10.11
2019-02-19T17:01:02.391Z,10.08
2019-02-19T17:02:02.320Z,10.05
2019-02-19T17:03:02.216Z,10.07
2019-02-19T17:04:03.425Z,10.09
2019-02-19T17:05:02.079Z,10.04
2019-02-19T17:06:01.969Z,10.01
2019-02-19T17:07:01.889Z,10.02
2019-02-19T17:08:01.805Z,10.01
2019-02-19T17:09:01.728Z,10.07
2019-02-19T17:10:01.640Z,10.04
2019-02-19T17:11:01.557Z,10.04
2019-02-19T17:12:01.481Z,10.09
2019-02-19T17:13:01.394Z,10.04
2019-02-19T17:14:01.313Z,10.05
2019-02-19T17:15:01.231Z,10.09
2019-02-19T17:16:01.143Z,10.02
2019-02-19T17:17:01.066Z,10.07
2019-02-19T17:18:00.979Z,10.01
2019-02-19T17:19:00.891Z,10.02
2019-02-19T17:20:01.082Z,10.01
2019-02-19T17:21:00.731Z,10.05
2019-02-19T17:22:00.643Z,9.99
2019-02-19T17:23:00.568Z,10.08
2019-02-19T17:24:00.479Z,10.07
2019-02-19T17:25:00.399Z,10.08
2019-02-19T17:26:00.317Z,10.05
2019-02-19T17:27:00.230Z,10.07
2019-02-19T17:28:00.145Z,9.99
2019-02-19T17:29:00.078Z,10.04
2019-02-19T17:29:59.983Z,10.04
2019-02-19T17:30:59.907Z,10.05
2019-02-19T17:31:59.817Z,10.07
2019-02-19T17:32:59.732Z,9.94
2019-02-19T17:33:59.657Z,10.01
2019-02-19T17:34:59.573Z,9.99
2019-02-19T17:35:59.482Z,10.02
2019-02-19T17:36:59.408Z,10.04
2019-02-19T17:37:59.326Z,9.97
2019-02-19T17:38:59.245Z,10.07
2019-02-19T17:39:59.159Z,10.07
2019-02-19T17:40:59.071Z,9.99
2019-02-19T17:41:58.995Z,10.08
2019-02-19T17:42:58.909Z,10.08
2019-02-19T17:43:58.818Z,10.04
2019-02-19T17:44:58.746Z,10.09
2019-02-19T17:45:58.657Z,10.04
2019-02-19T17:46:58.569Z,9.97
2019-02-19T17:47:58.496Z,10.04
2019-02-19T17:48:58.410Z,10.07
2019-02-19T17:49:58.325Z,10.07
2019-02-19T17:50:58.251Z,10.08
2019-02-19T17:51:58.173Z,10.04
2019-02-19T17:52:58.083Z,10.05
2019-02-19T17:53:58.021Z,10.02
2019-02-19T17:54:57.908Z,10.02
2019-02-19T17:55:57.835Z,10.08
2019-02-19T17:56:57.745Z,9.91
2019-02-19T17:57:57.657Z,9.96
2019-02-19T17:58:57.811Z,9.97
2019-02-19T17:59:57.511Z,9.99
2019-02-19T18:00:57.426Z,9.94
2019-02-19T18:01:57.340Z,9.93
2019-02-19T18:02:57.247Z,9.76
2019-02-19T18:03:57.175Z,9.86
2019-02-19T18:04:57.091Z,9.83
2019-02-19T18:05:56.997Z,9.83
2019-02-19T18:06:56.923Z,9.89
2019-02-19T18:07:56.836Z,9.81
2019-02-19T18:08:56.748Z,9.83
2019-02-19T18:09:56.673Z,9.79
2019-02-19T18:10:56.586Z,9.84
2019-02-19T18:11:56.499Z,9.84
2019-02-19T18:12:56.424Z,9.72
2019-02-19T18:13:56.337Z,9.79
2019-02-19T18:14:56.250Z,9.78